Time;durP1;ratioP1;P1;durP2;ratioP2;P2;SDS_P1;SDS_P2;PMS_P1;PMS_P2;Temp;Humidity;BMP_temperature;BMP_pressure;BME280_temperature;BME280_humidity;BME280_pressure;Samples;Min_cycle;Max_cycle;Signal;HPM_P1;HPM_P2
2022/07/18 00:01:39;;;;;;;4.07;2.67;;;22.10;49.90;;;;;;5013676;28;20172;-54
2022/07/18 00:04:05;;;;;;;5.47;2.53;;;22.10;49.80;;;;;;5013670;28;20200;-54
2022/07/18 00:06:30;;;;;;;3.13;2.80;;;22.00;49.80;;;;;;5012930;28;20228;-54
2022/07/18 00:08:56;;;;;;;3.72;2.65;;;22.00;49.80;;;;;;5013512;28;20687;-56
2022/07/18 00:11:21;;;;;;;2.78;2.40;;;22.00;49.80;;;;;;5013801;28;20286;-54
2022/07/18 00:13:47;;;;;;;3.45;2.92;;;22.00;49.80;;;;;;5012616;28;20172;-48
2022/07/18 00:16:12;;;;;;;3.53;3.17;;;22.00;49.80;;;;;;5013463;28;20176;-48
2022/07/18 00:18:38;;;;;;;2.67;2.42;;;22.00;49.80;;;;;;5013582;28;20188;-47
2022/07/18 00:21:04;;;;;;;3.60;2.60;;;22.00;49.80;;;;;;5012474;28;20591;-47
2022/07/18 00:23:30;;;;;;;3.88;3.35;;;22.00;49.90;;;;;;5013660;28;20181;-47
2022/07/18 00:25:55;;;;;;;2.75;2.50;;;22.00;49.80;;;;;;5013179;28;20172;-47
2022/07/18 00:28:21;;;;;;;4.68;2.97;;;22.00;49.80;;;;;;5012636;28;20252;-46
2022/07/18 00:30:49;;;;;;;3.33;2.67;;;22.00;49.90;;;;;;5013098;28;20243;-47
2022/07/18 00:33:15;;;;;;;3.00;2.67;;;22.00;49.70;;;;;;5012628;28;20204;-46
2022/07/18 00:35:40;;;;;;;4.43;3.00;;;22.00;49.80;;;;;;5013073;28;20657;-47
2022/07/18 00:38:06;;;;;;;3.03;2.45;;;22.00;49.60;;;;;;5013130;28;20268;-47
2022/07/18 00:40:31;;;;;;;3.42;2.70;;;22.00;49.60;;;;;;5012534;28;20185;-49
2022/07/18 00:42:57;;;;;;;4.35;3.10;;;22.00;49.70;;;;;;5013101;28;20463;-49
2022/07/18 00:45:23;;;;;;;2.78;2.58;;;22.00;49.60;;;;;;5013000;28;20176;-51
2022/07/18 00:47:51;;;;;;;3.67;2.47;;;21.90;49.50;;;;;;5012134;28;20173;-48
2022/07/18 00:50:19;;;;;;;2.90;2.70;;;21.90;49.60;;;;;;5012978;28;20631;-48
2022/07/18 00:52:45;;;;;;;3.47;2.42;;;21.90;49.50;;;;;;5012947;28;20184;-50
2022/07/18 00:55:11;;;;;;;3.42;2.60;;;21.90;49.60;;;;;;5012252;28;20271;-53
2022/07/18 00:57:37;;;;;;;3.85;2.78;;;21.90;49.60;;;;;;5012955;28;20183;-46
2022/07/18 01:02:49;;;;;;;4.35;3.08;;;21.90;49.40;;;;;;5012080;28;20180;-47
2022/07/18 01:05:14;;;;;;;2.75;2.55;;;21.90;49.40;;;;;;5012621;28;20581;-48
2022/07/18 01:07:40;;;;;;;3.13;2.65;;;21.90;49.40;;;;;;5012710;28;20176;-54
2022/07/18 01:10:06;;;;;;;2.67;2.47;;;21.90;49.40;;;;;;5011979;28;20208;-55
2022/07/18 01:12:31;;;;;;;3.33;2.70;;;21.90;49.50;;;;;;5012831;28;20173;-47
2022/07/18 01:14:57;;;;;;;3.05;2.40;;;21.90;49.40;;;;;;5012810;28;20657;-50
2022/07/18 01:17:23;;;;;;;2.92;2.63;;;21.90;49.40;;;;;;5011102;28;20175;-49
2022/07/18 01:19:48;;;;;;;3.00;2.70;;;21.90;49.40;;;;;;5012697;28;20183;-51
2022/07/18 01:22:15;;;;;;;3.60;2.65;;;21.90;49.30;;;;;;5012698;28;20183;-50
2022/07/18 01:24:40;;;;;;;3.40;2.67;;;21.90;49.20;;;;;;5011940;28;20235;-48
2022/07/18 01:27:06;;;;;;;2.63;2.42;;;21.90;49.20;;;;;;5012631;28;20176;-47
2022/07/18 01:29:32;;;;;;;6.43;3.17;;;21.80;49.20;;;;;;5012150;28;20223;-48
2022/07/18 01:32:04;;;;;;;3.22;2.47;;;21.80;49.20;;;;;;5012780;28;20207;-48
2022/07/18 01:34:29;;;;;;;3.13;2.80;;;21.80;49.10;;;;;;5012832;28;20181;-48
2022/07/18 01:36:55;;;;;;;3.80;2.85;;;21.80;49.10;;;;;;5011624;28;20195;-52
2022/07/18 01:39:20;;;;;;;3.10;2.78;;;21.80;49.10;;;;;;5012389;28;20545;-51
2022/07/18 01:41:46;;;;;;;2.60;2.40;;;21.80;49.10;;;;;;5012240;28;20180;-53
2022/07/18 01:44:11;;;;;;;3.65;2.70;;;21.80;49.20;;;;;;5012048;28;20172;-49
2022/07/18 01:46:37;;;;;;;3.00;2.67;;;21.80;49.00;;;;;;5012730;28;20172;-49
2022/07/18 01:49:02;;;;;;;3.47;2.90;;;21.80;48.90;;;;;;5012474;28;20287;-47
2022/07/18 01:51:28;;;;;;;3.05;2.67;;;21.80;49.00;;;;;;5014957;28;20169;-49
2022/07/18 01:53:57;;;;;;;2.95;2.60;;;21.80;49.00;;;;;;5016008;28;20168;-53
2022/07/18 01:56:23;;;;;;;3.92;2.55;;;21.80;49.10;;;;;;5016126;28;20706;-54
2022/07/18 01:58:49;;;;;;;3.38;2.72;;;21.80;49.00;;;;;;5015459;28;20331;-54
2022/07/18 02:01:14;;;;;;;3.30;2.75;;;21.80;48.90;;;;;;5016060;28;20176;-54
2022/07/18 02:03:40;;;;;;;3.33;2.72;;;21.80;49.00;;;;;;5015900;28;20338;-54
2022/07/18 02:06:05;;;;;;;4.07;2.95;;;21.80;48.90;;;;;;5014969;28;20311;-56
2022/07/18 02:08:31;;;;;;;2.65;2.45;;;21.70;48.80;;;;;;5015829;28;20238;-52
2022/07/18 02:10:57;;;;;;;4.25;2.65;;;21.80;48.90;;;;;;5015463;28;20615;-53
2022/07/18 02:13:22;;;;;;;2.97;2.70;;;21.80;48.90;;;;;;5015270;28;20187;-55
2022/07/18 02:15:48;;;;;;;3.90;2.90;;;21.80;48.90;;;;;;5015702;28;20243;-57
2022/07/18 02:18:13;;;;;;;3.10;2.65;;;21.70;48.80;;;;;;5015894;28;20181;-56
2022/07/18 02:20:38;;;;;;;3.85;3.10;;;21.70;48.80;;;;;;5014973;28;20611;-57
2022/07/18 02:23:04;;;;;;;3.47;3.17;;;21.70;48.90;;;;;;5015391;28;20681;-54
2022/07/18 02:25:30;;;;;;;4.13;2.78;;;21.70;48.80;;;;;;5015468;28;20227;-54
2022/07/18 02:27:55;;;;;;;3.17;2.88;;;21.70;48.80;;;;;;5014791;28;20344;-50
2022/07/18 02:30:21;;;;;;;2.95;2.65;;;21.70;48.70;;;;;;5015548;28;20611;-49
2022/07/18 02:32:47;;;;;;;3.15;2.70;;;21.70;48.80;;;;;;5014687;28;20184;-50
2022/07/18 02:35:12;;;;;;;3.78;3.45;;;21.70;48.70;;;;;;5015370;28;20258;-53
2022/07/18 02:37:40;;;;;;;4.20;3.15;;;21.70;48.80;;;;;;5015172;28;20177;-53
2022/07/18 02:40:09;;;;;;;3.28;2.97;;;21.70;48.70;;;;;;5014328;28;20181;-52
2022/07/18 02:42:35;;;;;;;3.65;2.83;;;21.70;48.70;;;;;;5015421;28;20184;-53
2022/07/18 02:45:00;;;;;;;3.45;2.42;;;21.70;48.70;;;;;;5014762;28;20188;-49
2022/07/18 02:47:26;;;;;;;5.25;3.05;;;21.70;48.70;;;;;;5014664;28;20165;-53
2022/07/18 02:49:51;;;;;;;3.42;2.95;;;21.70;48.70;;;;;;5014987;28;20316;-46
2022/07/18 02:52:17;;;;;;;4.40;2.80;;;21.70;48.80;;;;;;5014908;28;20173;-52
2022/07/18 02:54:42;;;;;;;3.45;2.70;;;21.60;48.80;;;;;;5014111;28;20628;-52
2022/07/18 02:57:08;;;;;;;3.28;2.95;;;21.70;48.80;;;;;;5015043;28;20172;-54
2022/07/18 02:59:34;;;;;;;3.63;2.92;;;21.60;48.70;;;;;;5015068;28;20176;-52
2022/07/18 03:02:00;;;;;;;3.20;2.90;;;21.60;48.70;;;;;;5013811;28;20172;-51
2022/07/18 03:04:25;;;;;;;3.15;2.60;;;21.60;48.70;;;;;;5014911;28;20658;-52
2022/07/18 03:06:51;;;;;;;3.10;2.80;;;21.60;48.70;;;;;;5014251;28;20225;-52
2022/07/18 03:09:16;;;;;;;5.50;3.50;;;21.60;48.70;;;;;;5013765;28;20212;-54
2022/07/18 03:11:42;;;;;;;4.28;3.10;;;21.60;48.70;;;;;;5014664;28;20536;-48
2022/07/18 03:14:07;;;;;;;3.42;2.97;;;21.60;48.70;;;;;;5014765;28;20181;-47
2022/07/18 03:16:33;;;;;;;3.95;2.60;;;21.60;48.70;;;;;;5014010;28;20623;-47
2022/07/18 03:18:58;;;;;;;5.35;3.10;;;21.60;48.70;;;;;;5014348;28;20183;-50
2022/07/18 03:21:24;;;;;;;4.10;2.90;;;21.60;48.70;;;;;;5014516;28;20168;-52
2022/07/18 03:23:50;;;;;;;3.72;3.33;;;21.60;48.50;;;;;;5013517;28;20187;-52
2022/07/18 03:26:15;;;;;;;3.65;2.92;;;21.60;48.60;;;;;;5014207;28;20173;-53
2022/07/18 03:28:41;;;;;;;3.00;2.70;;;21.60;48.60;;;;;;5014020;28;20270;-48
2022/07/18 03:31:06;;;;;;;3.90;2.83;;;21.60;48.60;;;;;;5013505;28;20179;-47
2022/07/18 03:33:32;;;;;;;3.17;2.80;;;21.60;48.60;;;;;;5014591;28;20172;-51
2022/07/18 03:35:57;;;;;;;2.67;2.45;;;21.60;48.60;;;;;;5014011;28;20176;-51
2022/07/18 03:38:23;;;;;;;3.75;2.97;;;21.50;48.60;;;;;;5013340;28;20619;-54
2022/07/18 03:40:48;;;;;;;4.00;3.20;;;21.50;48.50;;;;;;5014139;28;20650;-52
2022/07/18 03:43:14;;;;;;;4.20;2.95;;;21.50;48.50;;;;;;5013470;28;20180;-51
2022/07/18 03:45:39;;;;;;;5.32;3.30;;;21.50;48.50;;;;;;5013922;28;20187;-51
2022/07/18 03:48:05;;;;;;;3.28;2.97;;;21.50;48.50;;;;;;5014007;28;20168;-50
2022/07/18 03:50:30;;;;;;;3.58;3.28;;;21.50;48.50;;;;;;5013420;28;20180;-48
2022/07/18 03:52:56;;;;;;;4.40;3.15;;;21.50;48.40;;;;;;5013640;28;20187;-48
2022/07/18 03:55:21;;;;;;;3.88;3.10;;;21.50;48.60;;;;;;5013820;28;20180;-50
2022/07/18 03:57:47;;;;;;;3.45;2.85;;;21.50;48.50;;;;;;5012940;28;20202;-54
2022/07/18 04:00:13;;;;;;;4.18;3.05;;;21.50;48.50;;;;;;5013524;28;20168;-47
2022/07/18 04:02:40;;;;;;;5.07;2.90;;;21.50;48.60;;;;;;5013402;28;20189;-53
2022/07/18 04:05:06;;;;;;;5.10;3.22;;;21.50;48.50;;;;;;5012921;28;20221;-48
2022/07/18 04:07:31;;;;;;;4.13;3.17;;;21.50;48.50;;;;;;5013613;28;20189;-53
2022/07/18 04:09:58;;;;;;;3.97;2.80;;;21.50;48.60;;;;;;5013470;28;20243;-51
2022/07/18 04:12:23;;;;;;;4.15;3.13;;;21.50;48.60;;;;;;5012804;28;20169;-51
2022/07/18 04:14:49;;;;;;;4.10;3.00;;;21.50;48.70;;;;;;5013308;28;20177;-52
2022/07/18 04:17:14;;;;;;;3.35;3.05;;;21.50;48.60;;;;;;5013543;28;20188;-51
2022/07/18 04:19:40;;;;;;;5.80;3.17;;;21.50;48.60;;;;;;5012575;28;20176;-52
2022/07/18 04:22:05;;;;;;;3.63;3.15;;;21.50;48.60;;;;;;5013268;28;20184;-51
2022/07/18 04:24:31;;;;;;;3.25;2.88;;;21.50;48.60;;;;;;5013420;28;20665;-56
2022/07/18 04:26:56;;;;;;;3.28;2.97;;;21.50;48.70;;;;;;5012719;28;20180;-51
2022/07/18 04:29:22;;;;;;;4.18;3.13;;;21.50;48.70;;;;;;5013446;28;20215;-54
2022/07/18 04:31:47;;;;;;;3.30;3.00;;;21.50;48.70;;;;;;5013043;28;20180;-47
2022/07/18 04:34:13;;;;;;;4.43;2.97;;;21.50;48.70;;;;;;5012360;28;20262;-46
2022/07/18 04:36:38;;;;;;;4.10;2.75;;;21.50;48.70;;;;;;5012940;28;20656;-47
2022/07/18 04:39:04;;;;;;;2.63;2.30;;;21.50;48.70;;;;;;5013286;28;20206;-50
2022/07/18 04:41:29;;;;;;;3.08;2.78;;;21.50;48.70;;;;;;5012165;28;20177;-48
2022/07/18 04:43:55;;;;;;;3.15;2.60;;;21.50;48.80;;;;;;5013108;28;20212;-51
2022/07/18 04:46:20;;;;;;;5.05;2.78;;;21.50;48.90;;;;;;5013037;28;20288;-53
2022/07/18 04:48:46;;;;;;;2.70;2.40;;;21.50;48.80;;;;;;5012325;28;20214;-54
2022/07/18 04:51:11;;;;;;;3.35;2.70;;;21.50;48.80;;;;;;5013032;28;20253;-53
2022/07/18 04:53:37;;;;;;;3.25;2.80;;;21.50;48.90;;;;;;5012303;28;20529;-49
2022/07/18 04:56:03;;;;;;;4.00;2.33;;;21.50;48.80;;;;;;5013054;28;20604;-50
2022/07/18 04:58:28;;;;;;;3.22;2.85;;;21.50;48.90;;;;;;5012967;28;20180;-46
2022/07/18 05:00:55;;;;;;;2.90;2.58;;;21.50;49.00;;;;;;5012061;28;20276;-52
2022/07/18 05:03:21;;;;;;;3.70;2.45;;;21.50;49.10;;;;;;5012969;28;20188;-51
2022/07/18 05:05:46;;;;;;;3.45;2.47;;;21.50;49.10;;;;;;5012514;28;20729;-50
2022/07/18 05:08:13;;;;;;;3.00;2.38;;;21.50;49.20;;;;;;5011915;28;20223;-52
2022/07/18 05:10:39;;;;;;;3.85;2.72;;;21.50;49.30;;;;;;5012560;28;20651;-54
2022/07/18 05:13:04;;;;;;;4.22;2.63;;;21.50;49.40;;;;;;5012717;28;20176;-50
2022/07/18 05:15:30;;;;;;;4.47;2.90;;;21.50;49.40;;;;;;5012228;28;20173;-55
2022/07/18 05:17:55;;;;;;;3.03;2.33;;;21.50;49.40;;;;;;5012597;28;20518;-53
2022/07/18 05:20:23;;;;;;;3.47;2.45;;;21.50;49.40;;;;;;5012446;28;20164;-49
2022/07/18 05:22:51;;;;;;;3.28;2.97;;;21.50;49.40;;;;;;5012023;28;20208;-55
2022/07/18 05:25:16;;;;;;;3.10;2.40;;;21.60;49.50;;;;;;5014116;28;20597;-51
2022/07/18 05:27:42;;;;;;;3.72;2.40;;;21.50;49.40;;;;;;5016542;28;20706;-48
2022/07/18 05:30:10;;;;;;;5.00;2.80;;;21.50;49.60;;;;;;5015787;28;20697;-51
2022/07/18 05:32:37;;;;;;;2.50;2.30;;;21.50;49.60;;;;;;5016464;28;20199;-48
2022/07/18 05:35:02;;;;;;;3.65;2.78;;;21.50;49.60;;;;;;5016264;28;20181;-49
2022/07/18 05:37:28;;;;;;;3.13;2.78;;;21.50;49.60;;;;;;5015446;28;20271;-51
2022/07/18 05:39:53;;;;;;;5.65;2.42;;;21.50;49.60;;;;;;5016362;28;20172;-51
2022/07/18 05:42:19;;;;;;;3.70;2.45;;;21.50;49.80;;;;;;5016462;28;20263;-52
2022/07/18 05:44:44;;;;;;;3.83;3.10;;;21.50;49.90;;;;;;5015476;28;20643;-53
2022/07/18 05:47:10;;;;;;;3.63;2.55;;;21.50;49.90;;;;;;5016216;28;20176;-53
2022/07/18 05:49:36;;;;;;;4.15;2.70;;;21.50;50.00;;;;;;5016168;28;20216;-53
2022/07/18 05:52:01;;;;;;;2.53;2.33;;;21.50;50.00;;;;;;5015300;28;20175;-51
2022/07/18 05:54:27;;;;;;;3.20;2.20;;;21.50;50.10;;;;;;5016393;28;20181;-51
2022/07/18 05:56:52;;;;;;;2.70;2.40;;;21.50;50.20;;;;;;5015125;28;20537;-51
2022/07/18 05:59:18;;;;;;;2.70;2.50;;;21.50;50.30;;;;;;5016243;28;20193;-50
2022/07/18 06:01:44;;;;;;;4.05;2.67;;;21.50;50.50;;;;;;5016098;28;20173;-52
2022/07/18 06:04:09;;;;;;;3.00;2.28;;;21.50;51.20;;;;;;5015110;28;20179;-47
2022/07/18 06:06:35;;;;;;;4.38;2.63;;;21.50;50.70;;;;;;5015917;28;20743;-50
2022/07/18 06:09:01;;;;;;;2.65;2.28;;;21.50;50.70;;;;;;5015671;28;20614;-54
2022/07/18 06:11:26;;;;;;;4.38;2.40;;;21.50;50.70;;;;;;5015184;28;20172;-53
2022/07/18 06:13:52;;;;;;;3.80;2.47;;;21.50;50.80;;;;;;5015757;28;20540;-53
2022/07/18 06:16:17;;;;;;;3.60;2.22;;;21.60;50.90;;;;;;5015646;28;21020;-54
2022/07/18 06:18:43;;;;;;;2.78;2.50;;;21.50;50.90;;;;;;5014764;28;20635;-47
2022/07/18 06:21:09;;;;;;;3.85;2.75;;;21.50;50.90;;;;;;5015659;28;20185;-52
2022/07/18 06:23:35;;;;;;;2.60;2.30;;;21.50;50.90;;;;;;5015882;28;20168;-52
2022/07/18 06:26:01;;;;;;;4.53;2.88;;;21.50;50.90;;;;;;5014622;28;20226;-54
2022/07/18 06:28:28;;;;;;;4.03;2.70;;;21.50;50.90;;;;;;5015716;28;20236;-52
2022/07/18 06:30:53;;;;;;;3.80;2.47;;;21.50;50.90;;;;;;5015222;28;20259;-48
2022/07/18 06:33:19;;;;;;;3.63;2.30;;;21.60;50.90;;;;;;5014734;28;20322;-49
2022/07/18 06:35:46;;;;;;;4.85;2.90;;;21.60;50.90;;;;;;5014898;28;20177;-50
2022/07/18 06:38:12;;;;;;;3.00;2.22;;;21.50;51.00;;;;;;5015219;28;20177;-55
2022/07/18 06:40:37;;;;;;;4.88;2.70;;;21.60;51.00;;;;;;5014745;28;20181;-53
2022/07/18 06:43:03;;;;;;;4.07;2.38;;;21.60;51.00;;;;;;5015344;28;20565;-49
2022/07/18 06:45:28;;;;;;;4.63;2.33;;;21.60;51.10;;;;;;5015132;28;20173;-48
2022/07/18 06:47:54;;;;;;;4.50;2.38;;;21.70;51.20;;;;;;5014099;28;20581;-47
2022/07/18 06:50:19;;;;;;;4.32;2.90;;;21.60;51.40;;;;;;5015097;28;20311;-48
2022/07/18 06:52:45;;;;;;;3.70;2.45;;;21.70;51.60;;;;;;5015154;28;20172;-48
2022/07/18 06:55:11;;;;;;;3.65;2.53;;;21.70;51.60;;;;;;5014373;28;20267;-50
2022/07/18 06:57:37;;;;;;;5.72;2.65;;;21.70;51.60;;;;;;5015296;28;20230;-50
2022/07/18 07:00:04;;;;;;;4.20;2.50;;;21.70;51.70;;;;;;5014104;28;20184;-50
2022/07/18 07:02:29;;;;;;;6.97;2.78;;;21.70;51.70;;;;;;5014871;28;20226;-52
2022/07/18 07:04:55;;;;;;;4.47;2.40;;;21.70;51.90;;;;;;5014558;28;20236;-53
2022/07/18 07:07:20;;;;;;;2.40;2.03;;;21.70;51.80;;;;;;5013748;28;20283;-50
2022/07/18 07:09:46;;;;;;;4.07;2.38;;;21.70;51.70;;;;;;5013690;28;20299;-52
2022/07/18 07:12:11;;;;;;;4.05;2.42;;;21.70;51.60;;;;;;5013876;28;20696;-48
2022/07/18 07:14:37;;;;;;;3.42;2.58;;;21.70;51.50;;;;;;5013298;28;20260;-53
2022/07/18 07:17:03;;;;;;;4.03;2.70;;;21.70;51.50;;;;;;5013782;28;20662;-53
2022/07/18 07:19:29;;;;;;;8.75;3.45;;;21.70;51.50;;;;;;5013803;28;20192;-53
2022/07/18 07:21:55;;;;;;;2.67;2.47;;;21.70;51.50;;;;;;5013351;28;20661;-53
2022/07/18 07:24:20;;;;;;;4.95;2.63;;;21.70;51.40;;;;;;5014496;28;20181;-52
2022/07/18 07:26:46;;;;;;;4.75;2.53;;;21.70;51.40;;;;;;5014355;28;20188;-52
2022/07/18 07:29:11;;;;;;;4.10;2.40;;;21.70;51.40;;;;;;5013561;28;20616;-50
2022/07/18 07:31:37;;;;;;;4.97;2.40;;;21.70;51.40;;;;;;5014253;28;20627;-52
2022/07/18 07:34:02;;;;;;;6.63;3.05;;;21.70;51.40;;;;;;5014180;28;20177;-55
2022/07/18 07:36:28;;;;;;;2.97;2.63;;;21.70;51.40;;;;;;5013710;28;20259;-54
2022/07/18 07:38:54;;;;;;;3.50;2.53;;;21.70;51.40;;;;;;5014141;28;20260;-50
2022/07/18 07:41:19;;;;;;;5.88;2.38;;;21.70;51.40;;;;;;5014219;28;20600;-51
2022/07/18 07:43:45;;;;;;;2.42;2.22;;;21.70;51.40;;;;;;5013291;28;20607;-50
2022/07/18 07:46:11;;;;;;;5.53;2.63;;;21.70;51.40;;;;;;5014113;28;20250;-50
2022/07/18 07:48:37;;;;;;;6.65;2.72;;;21.70;51.40;;;;;;5013172;28;20290;-53
2022/07/18 07:51:03;;;;;;;2.58;2.22;;;21.70;51.50;;;;;;5013133;28;20639;-54
2022/07/18 07:53:29;;;;;;;3.13;2.40;;;21.70;51.50;;;;;;5013954;28;20177;-52
2022/07/18 07:55:54;;;;;;;2.92;2.22;;;21.70;51.50;;;;;;5013834;28;20606;-52
2022/07/18 07:58:20;;;;;;;2.88;2.20;;;21.70;51.50;;;;;;5013152;28;20204;-49
2022/07/18 08:00:45;;;;;;;4.55;2.47;;;21.70;51.50;;;;;;5013718;28;20309;-55
2022/07/18 08:03:11;;;;;;;3.53;2.58;;;21.70;51.50;;;;;;5013802;28;20678;-50
2022/07/18 08:05:38;;;;;;;4.57;2.60;;;21.70;51.50;;;;;;5013156;28;20259;-55
2022/07/18 08:08:04;;;;;;;4.95;2.38;;;21.80;51.60;;;;;;5013557;28;20673;-55
2022/07/18 08:10:30;;;;;;;3.08;2.17;;;21.80;51.70;;;;;;5012952;28;20650;-54
2022/07/18 08:12:56;;;;;;;3.70;2.40;;;21.80;51.70;;;;;;5013363;28;20169;-54
2022/07/18 08:15:21;;;;;;;4.43;2.53;;;21.80;51.60;;;;;;5013517;28;20192;-54
2022/07/18 08:17:47;;;;;;;2.92;2.10;;;21.80;51.60;;;;;;5012768;28;20734;-54
2022/07/18 08:20:18;;;;;;;3.45;2.50;;;21.80;51.60;;;;;;5013579;28;20195;-54
2022/07/18 08:22:55;;;;;;;4.50;2.85;;;21.80;51.60;;;;;;5013423;28;20173;-54
2022/07/18 08:25:20;;;;;;;3.70;2.40;;;21.80;51.60;;;;;;5012682;28;20176;-54
2022/07/18 08:27:46;;;;;;;4.40;2.45;;;21.80;51.60;;;;;;5013228;28;20226;-56
2022/07/18 08:30:11;;;;;;;4.15;2.10;;;21.80;51.70;;;;;;5013125;28;20219;-52
2022/07/18 08:32:37;;;;;;;4.28;2.78;;;21.80;51.70;;;;;;5012607;28;20173;-49
2022/07/18 08:35:03;;;;;;;5.07;2.35;;;21.80;51.60;;;;;;5013371;28;20193;-54
2022/07/18 08:37:28;;;;;;;4.43;2.20;;;21.80;51.70;;;;;;5013571;28;20707;-58
2022/07/18 08:39:54;;;;;;;3.92;2.30;;;21.80;51.70;;;;;;5012293;28;20575;-55
2022/07/18 08:42:20;;;;;;;3.60;2.00;;;21.80;51.70;;;;;;5013102;28;20675;-57
2022/07/18 08:44:46;;;;;;;3.22;2.20;;;21.80;51.80;;;;;;4995344;28;20219;-55
2022/07/18 08:47:13;;;;;;;4.30;2.58;;;21.80;51.70;;;;;;4995205;28;20204;-54
2022/07/18 08:49:38;;;;;;;4.05;2.08;;;21.90;51.70;;;;;;5011860;28;20216;-55
2022/07/18 08:52:04;;;;;;;4.53;1.90;;;21.90;51.70;;;;;;5013362;28;20169;-55
2022/07/18 08:54:30;;;;;;;4.43;2.13;;;21.90;51.70;;;;;;5011440;28;20179;-58
2022/07/18 08:56:55;;;;;;;3.25;2.17;;;21.90;51.80;;;;;;5011835;28;20544;-53
2022/07/18 08:59:21;;;;;;;2.35;2.13;;;21.90;51.80;;;;;;5012820;28;20713;-55
2022/07/18 09:01:46;;;;;;;3.92;2.80;;;21.90;51.70;;;;;;5012070;28;20176;-55
2022/07/18 09:04:16;;;;;;;2.88;2.17;;;21.90;51.80;;;;;;5012995;28;20271;-55
2022/07/18 09:06:46;;;;;;;7.35;2.65;;;21.90;51.80;;;;;;4994460;28;20290;-56
2022/07/18 09:09:13;;;;;;;2.60;2.28;;;21.90;51.80;;;;;;5012943;28;20269;-56
2022/07/18 09:11:50;;;;;;;2.50;2.20;;;21.90;51.80;;;;;;5012737;28;20689;-57
2022/07/18 09:14:36;;;;;;;2.65;2.10;;;21.90;51.80;;;;;;5012119;28;20183;-56
2022/07/18 09:17:09;;;;;;;3.53;2.13;;;21.90;51.80;;;;;;5012565;28;20646;-55
2022/07/18 09:19:36;;;;;;;3.67;2.00;;;21.90;51.80;;;;;;5012787;28;20180;-56
2022/07/18 09:22:31;;;;;;;3.42;2.28;;;22.00;51.90;;;;;;5011734;28;20188;-53
2022/07/18 09:24:58;;;;;;;4.53;2.20;;;22.00;51.90;;;;;;5000339;28;20370;-50
2022/07/18 09:27:40;;;;;;;2.80;2.03;;;22.00;51.90;;;;;;5012950;28;20225;-56
2022/07/18 09:30:26;;;;;;;3.42;2.22;;;22.00;52.30;;;;;;5011973;28;20212;-54
2022/07/18 09:32:55;;;;;;;3.53;2.25;;;22.00;52.20;;;;;;5012456;28;20631;-50
2022/07/18 09:35:26;;;;;;;4.47;2.38;;;22.00;52.30;;;;;;5010936;28;20331;-48
2022/07/18 09:38:03;;;;;;;2.80;2.42;;;22.00;52.40;;;;;;5012596;28;20176;-50
2022/07/18 09:40:30;;;;;;;3.55;2.00;;;22.00;52.00;;;;;;5012552;28;20199;-53
2022/07/18 09:42:58;;;;;;;3.97;2.20;;;22.00;52.00;;;;;;5011661;28;20204;-51
2022/07/18 09:45:33;;;;;;;2.58;1.95;;;22.10;52.20;;;;;;5012311;28;20204;-52
2022/07/18 09:48:06;;;;;;;5.18;2.10;;;22.10;52.50;;;;;;5012353;28;20634;-54
2022/07/18 09:50:40;;;;;;;6.10;2.35;;;22.10;52.50;;;;;;5012074;28;20200;-52
2022/07/18 09:53:14;;;;;;;3.80;2.13;;;22.10;52.20;;;;;;5012462;28;20176;-52
2022/07/18 09:56:03;;;;;;;5.28;2.13;;;22.10;52.00;;;;;;5012276;28;20271;-54
2022/07/18 09:58:30;;;;;;;3.10;2.20;;;22.10;52.20;;;;;;5004369;28;20184;-52
2022/07/18 10:00:56;;;;;;;5.35;2.20;;;22.20;52.30;;;;;;5012356;28;20177;-51
2022/07/18 10:03:22;;;;;;;3.22;2.00;;;22.20;52.20;;;;;;5011443;28;20172;-51
2022/07/18 10:05:49;;;;;;;4.65;1.90;;;22.20;52.10;;;;;;5011948;28;20241;-51
2022/07/18 10:08:16;;;;;;;4.07;2.08;;;22.20;52.40;;;;;;5012094;28;20172;-55
2022/07/18 10:10:43;;;;;;;2.38;2.03;;;22.20;52.40;;;;;;5011803;28;20212;-53
2022/07/18 10:13:08;;;;;;;3.25;2.10;;;22.20;52.50;;;;;;5015749;28;20643;-56
2022/07/18 10:15:36;;;;;;;3.03;1.75;;;22.20;52.60;;;;;;5015656;28;20223;-53
2022/07/18 10:18:03;;;;;;;3.38;2.58;;;22.20;52.50;;;;;;5014773;28;20705;-48
2022/07/18 10:20:42;;;;;;;3.55;1.83;;;22.20;52.70;;;;;;5015351;28;20179;-56
2022/07/18 10:23:13;;;;;;;5.63;2.80;;;22.20;52.30;;;;;;5024701;28;20180;-49
2022/07/18 10:25:39;;;;;;;7.38;2.47;;;22.20;52.30;;;;;;5016716;28;20199;-52
2022/07/18 10:28:14;;;;;;;3.72;1.98;;;22.20;52.20;;;;;;5016433;28;20179;-53
2022/07/18 10:30:46;;;;;;;3.95;2.08;;;22.20;52.20;;;;;;5035169;28;20186;-50
2022/07/18 10:33:45;;;;;;;4.68;1.98;;;22.30;52.20;;;;;;5034512;28;20179;-55
2022/07/18 10:36:31;;;;;;;3.33;1.95;;;22.30;52.10;;;;;;5035075;28;20631;-56
2022/07/18 10:39:05;;;;;;;3.58;2.05;;;22.30;52.00;;;;;;5027439;28;20212;-50
2022/07/18 10:41:30;;;;;;;3.53;1.95;;;22.30;52.10;;;;;;5015323;28;20188;-54
2022/07/18 10:43:56;;;;;;;2.55;1.70;;;22.30;52.00;;;;;;5015155;28;20574;-55
2022/07/18 10:46:21;;;;;;;3.05;1.90;;;22.30;51.90;;;;;;5014531;28;20184;-55
2022/07/18 10:48:48;;;;;;;5.95;2.13;;;22.30;51.80;;;;;;5015031;28;20212;-55
2022/07/18 10:51:17;;;;;;;4.93;2.42;;;22.30;51.80;;;;;;5014978;28;20176;-53
2022/07/18 10:53:55;;;;;;;3.45;2.00;;;22.30;51.90;;;;;;5014287;28;20204;-56
2022/07/18 10:56:20;;;;;;;3.63;1.92;;;22.20;51.90;;;;;;5023709;28;20661;-55
2022/07/18 10:58:46;;;;;;;4.20;2.20;;;22.20;52.10;;;;;;5034727;28;20180;-55
2022/07/18 11:01:17;;;;;;;5.28;2.00;;;22.20;52.20;;;;;;5016132;28;20180;-55
2022/07/18 11:03:43;;;;;;;6.60;2.45;;;22.30;52.10;;;;;;5034309;28;20176;-55
2022/07/18 11:06:08;;;;;;;5.97;2.35;;;22.40;52.10;;;;;;5034465;28;20657;-54
2022/07/18 11:08:34;;;;;;;5.82;2.63;;;22.40;52.00;;;;;;5033823;28;20293;-52
2022/07/18 11:11:02;;;;;;;7.15;2.30;;;22.40;52.00;;;;;;5034149;28;20168;-52
2022/07/18 11:13:34;;;;;;;9.75;2.47;;;22.40;52.10;;;;;;5033664;28;20230;-50
2022/07/18 11:16:11;;;;;;;4.53;1.80;;;22.40;52.10;;;;;;5034124;28;20175;-49
2022/07/18 11:18:46;;;;;;;4.90;2.08;;;22.40;52.00;;;;;;5034609;28;20186;-48
2022/07/18 11:21:18;;;;;;;6.68;2.05;;;22.40;52.00;;;;;;5033522;28;20200;-48
2022/07/18 11:23:46;;;;;;;5.30;1.67;;;22.40;52.00;;;;;;5033089;28;20186;-50
2022/07/18 11:26:18;;;;;;;5.50;2.03;;;22.40;52.10;;;;;;5033899;28;20176;-53
2022/07/18 11:28:45;;;;;;;5.55;2.40;;;22.40;52.10;;;;;;5033390;28;20204;-51
2022/07/18 11:31:11;;;;;;;4.50;2.00;;;22.40;52.10;;;;;;5001651;28;20239;-53
2022/07/18 11:33:41;;;;;;;5.78;2.00;;;22.50;52.20;;;;;;5014213;28;20208;-56
2022/07/18 11:36:11;;;;;;;3.22;1.98;;;22.50;52.20;;;;;;5013335;28;20184;-55
2022/07/18 11:38:53;;;;;;;3.28;1.90;;;22.50;52.20;;;;;;5014327;28;20211;-55
2022/07/18 11:41:19;;;;;;;3.78;1.83;;;22.50;52.20;;;;;;5013965;28;20253;-53
2022/07/18 11:43:45;;;;;;;4.75;2.13;;;22.50;52.20;;;;;;5013520;28;20180;-52
2022/07/18 11:46:13;;;;;;;3.65;2.35;;;22.50;52.20;;;;;;5014028;28;20583;-53
2022/07/18 11:48:39;;;;;;;3.10;2.20;;;22.50;52.10;;;;;;5013293;28;20240;-47
2022/07/18 11:51:11;;;;;;;4.00;2.08;;;22.50;52.10;;;;;;5013984;28;20579;-51
2022/07/18 11:53:43;;;;;;;5.55;1.90;;;22.50;52.10;;;;;;5014091;28;20191;-52
2022/07/18 11:56:08;;;;;;;4.97;2.20;;;22.50;52.10;;;;;;4996428;28;20175;-53
2022/07/18 11:58:37;;;;;;;3.92;1.55;;;22.50;52.00;;;;;;4996305;28;20263;-53
2022/07/18 12:01:03;;;;;;;4.07;2.05;;;22.50;52.00;;;;;;5013875;28;20183;-51
2022/07/18 12:03:29;;;;;;;5.13;2.13;;;22.50;52.00;;;;;;5013303;28;20181;-53
2022/07/18 12:05:54;;;;;;;3.25;1.40;;;22.50;52.00;;;;;;4995686;28;20755;-53
2022/07/18 12:08:34;;;;;;;1.95;1.63;;;22.50;51.90;;;;;;5013638;28;20662;-55
2022/07/18 12:11:06;;;;;;;2.30;1.73;;;22.50;51.90;;;;;;5012323;28;20516;-56
2022/07/18 12:13:41;;;;;;;5.85;1.90;;;22.60;51.90;;;;;;5013795;28;20185;-56
2022/07/18 12:16:07;;;;;;;6.60;2.13;;;22.60;52.00;;;;;;5013370;28;20542;-54
2022/07/18 12:18:33;;;;;;;6.82;1.80;;;22.60;52.80;;;;;;5012761;28;20184;-53
2022/07/18 12:21:10;;;;;;;3.00;2.00;;;22.70;52.10;;;;;;5013133;28;20177;-51
2022/07/18 12:23:36;;;;;;;3.88;2.08;;;22.70;52.10;;;;;;5012966;28;20180;-55
2022/07/18 12:26:01;;;;;;;5.32;1.92;;;22.70;52.00;;;;;;5013280;28;20272;-55
2022/07/18 12:28:27;;;;;;;7.57;2.10;;;22.80;52.20;;;;;;5013204;28;20218;-56
2022/07/18 12:30:53;;;;;;;9.20;2.58;;;22.80;52.10;;;;;;5024836;28;20175;-51
2022/07/18 12:33:18;;;;;;;6.03;2.05;;;22.80;52.10;;;;;;5032898;28;20171;-55
2022/07/18 12:35:44;;;;;;;4.57;2.05;;;22.90;52.20;;;;;;5032513;28;20701;-51
2022/07/18 12:38:16;;;;;;;3.60;2.08;;;22.90;52.20;;;;;;5032262;28;20283;-55
2022/07/18 12:40:59;;;;;;;2.85;1.70;;;22.90;52.20;;;;;;5032747;28;20191;-50
2022/07/18 12:43:33;;;;;;;4.40;1.73;;;22.90;52.10;;;;;;5016244;28;20199;-51
2022/07/18 12:46:03;;;;;;;2.42;1.60;;;22.90;52.00;;;;;;5032014;28;20179;-48
2022/07/18 12:48:30;;;;;;;3.67;1.63;;;23.00;52.10;;;;;;5032734;28;20175;-56
2022/07/18 12:51:16;;;;;;;4.97;1.70;;;23.00;52.00;;;;;;5032752;28;20267;-55